Time;durP1;ratioP1;P1;durP2;ratioP2;P2;SDS_P1;SDS_P2;PMS_P1;PMS_P2;Temp;Humidity;BMP_temperature;BMP_pressure;BME280_temperature;BME280_humidity;BME280_pressure;Samples;Min_cycle;Max_cycle;Signal;HPM_P1;HPM_P2
2024/04/12 00:02:01;;;;;;;;;;;;;;;3.12;94.81;100146.00;5344479;26;19929;-88
2024/04/12 00:04:27;;;;;;;;;;;;;;;3.03;96.01;100150.50;5337290;26;19939;-87
2024/04/12 00:06:53;;;;;;;;;;;;;;;3.23;96.30;100138.94;5346583;26;19936;-89
2024/04/12 00:09:18;;;;;;;;;;;;;;;3.28;96.08;100138.50;5377350;26;19944;-87
2024/04/12 00:11:48;;;;;;;;;;;;;;;3.33;96.11;100137.16;5374173;26;19999;-87
2024/04/12 00:14:14;;;;;;;;;;;;;;;3.43;95.71;100138.81;5369885;26;19930;-87
2024/04/12 00:16:43;;;;;;;;;;;;;;;3.25;94.86;100126.78;5379183;26;20010;-89
2024/04/12 00:19:18;;;;;;;;;;;;;;;3.14;95.60;100123.28;5349012;26;19937;-90
2024/04/12 00:21:48;;;;;;;;;;;;;;;3.04;95.68;100136.53;5348127;26;19936;-88
2024/04/12 00:24:14;;;;;;;;;;;;;;;3.06;95.81;100129.66;5381525;26;20045;-88
2024/04/12 00:26:43;;;;;;;;;;;;;;;3.02;95.87;100128.50;5324571;26;19938;-87
2024/04/12 00:29:22;;;;;;;;;;;;;;;2.81;96.26;100127.66;5379459;26;19930;-88
2024/04/12 00:31:47;;;;;;;;;;;;;;;2.64;97.62;100128.00;5350166;26;19965;-88
2024/04/12 00:34:14;;;;;;;;;;;;;;;2.72;98.45;100124.28;5349955;26;19930;-89
2024/04/12 00:36:42;;;;;;;;;;;;;;;2.72;98.45;100116.38;5396273;26;19945;-88
2024/04/12 00:39:09;;;;;;;;;;;;;;;2.80;98.86;100115.28;5397287;26;19929;-91
2024/04/12 00:41:36;;;;;;;;;;;;;;;2.75;97.65;100115.72;5345918;26;19936;-88
2024/04/12 00:44:03;;;;;;;;;;;;;;;2.79;97.77;100112.53;5336020;26;19965;-88
2024/04/12 00:46:28;;;;;;;;;;;;;;;2.87;97.84;100111.41;5332214;26;20283;-88
2024/04/12 00:49:06;;;;;;;;;;;;;;;2.59;98.33;100105.63;5365328;26;20387;-87
2024/04/12 00:51:33;;;;;;;;;;;;;;;2.50;98.58;100112.78;5339085;26;19936;-89
2024/04/12 00:53:59;;;;;;;;;;;;;;;2.30;98.53;100108.50;5370921;26;19930;-88
2024/04/12 00:56:29;;;;;;;;;;;;;;;2.54;98.81;100105.25;5379182;26;19930;-88
2024/04/12 00:58:55;;;;;;;;;;;;;;;2.38;99.02;100107.41;5369075;26;19938;-88
2024/04/12 01:01:22;;;;;;;;;;;;;;;2.22;99.63;100104.28;5397779;26;19961;-88
2024/04/12 01:03:49;;;;;;;;;;;;;;;2.34;99.75;100099.13;5375089;26;19936;-90
2024/04/12 01:06:17;;;;;;;;;;;;;;;2.45;99.59;100108.84;5367135;26;19941;-89
2024/04/12 01:08:45;;;;;;;;;;;;;;;2.51;99.39;100109.34;5334944;26;19940;-88
2024/04/12 01:11:15;;;;;;;;;;;;;;;2.51;99.20;100111.97;5331586;26;20000;-89
2024/04/12 01:13:40;;;;;;;;;;;;;;;2.89;99.87;100103.66;5320548;26;19942;-89
2024/04/12 01:16:06;;;;;;;;;;;;;;;2.97;99.68;100107.81;5338928;26;19940;-89
2024/04/12 01:18:34;;;;;;;;;;;;;;;3.25;99.83;100108.31;5379925;26;19930;-87
2024/04/12 01:21:00;;;;;;;;;;;;;;;3.30;99.77;100107.88;5406785;26;19937;-90
2024/04/12 01:23:27;;;;;;;;;;;;;;;3.11;98.90;100112.47;5365522;26;19930;-88
2024/04/12 01:25:54;;;;;;;;;;;;;;;2.92;99.03;100114.44;5344995;26;20004;-89
2024/04/12 01:28:20;;;;;;;;;;;;;;;2.92;99.42;100111.78;5358823;26;19954;-88
2024/04/12 01:30:46;;;;;;;;;;;;;;;2.72;97.98;100107.53;5349653;26;19930;-87
2024/04/12 01:33:12;;;;;;;;;;;;;;;2.68;98.75;100114.28;5378024;26;19964;-87
2024/04/12 01:35:41;;;;;;;;;;;;;;;2.60;98.73;100107.47;5343646;26;19934;-88
2024/04/12 01:38:19;;;;;;;;;;;;;;;2.73;98.49;100115.59;5331518;26;19954;-89
2024/04/12 01:40:46;;;;;;;;;;;;;;;2.59;98.51;100105.63;5368910;26;19934;-88
2024/04/12 01:43:18;;;;;;;;;;;;;;;2.33;98.16;100120.97;5374535;26;19930;-88
2024/04/12 01:45:44;;;;;;;;;;;;;;;2.27;99.54;100122.31;5352753;26;19953;-88
2024/04/12 01:48:10;;;;;;;;;;;;;;;2.28;99.33;100125.84;5347726;26;20370;-87
2024/04/12 01:50:40;;;;;;;;;;;;;;;2.55;100.00;100127.25;5343596;26;19937;-88
2024/04/12 01:53:09;;;;;;;;;;;;;;;2.88;100.00;100130.81;5319099;26;20267;-87
2024/04/12 01:55:35;;;;;;;;;;;;;;;2.72;98.63;100129.53;5363015;26;20000;-87
2024/04/12 01:58:00;;;;;;;;;;;;;;;2.53;98.49;100126.19;5364341;26;19946;-89
2024/04/12 02:00:26;;;;;;;;;;;;;;;2.36;99.22;100126.53;5364320;26;19930;-90
2024/04/12 02:02:53;;;;;;;;;;;;;;;2.26;99.02;100130.09;5378185;26;19964;-88
2024/04/12 02:05:29;;;;;;;;;;;;;;;2.34;99.13;100128.09;5367807;26;20397;-88
2024/04/12 02:07:59;;;;;;;;;;;;;;;2.33;99.28;100134.16;5377570;26;20359;-90
2024/04/12 02:10:24;;;;;;;;;;;;;;;2.14;99.17;100137.88;5405328;26;19930;-89
2024/04/12 02:12:53;;;;;;;;;;;;;;;1.94;99.63;100127.38;5315176;26;20023;-90
2024/04/12 02:15:19;;;;;;;;;;;;;;;1.95;100.00;100123.94;5348021;26;19937;-89
2024/04/12 02:17:57;;;;;;;;;;;;;;;2.03;100.00;100126.44;5323753;26;19957;-88
2024/04/12 02:20:35;;;;;;;;;;;;;;;2.41;100.00;100127.81;5369700;26;19930;-89
2024/04/12 02:23:05;;;;;;;;;;;;;;;2.12;100.00;100128.94;5346824;26;19937;-88
2024/04/12 02:25:35;;;;;;;;;;;;;;;2.16;100.00;100130.13;5333876;26;19930;-90
2024/04/12 02:28:06;;;;;;;;;;;;;;;2.14;99.99;100127.34;5372409;26;19961;-89
2024/04/12 02:30:41;;;;;;;;;;;;;;;1.92;100.00;100118.44;5379084;26;19940;-88
2024/04/12 02:33:08;;;;;;;;;;;;;;;1.96;100.00;100121.41;5344639;26;19929;-90
2024/04/12 02:35:34;;;;;;;;;;;;;;;2.16;100.00;100119.59;5338633;26;19937;-88
2024/04/12 02:37:59;;;;;;;;;;;;;;;2.24;100.00;100116.78;5386068;26;19929;-88
2024/04/12 02:40:25;;;;;;;;;;;;;;;2.36;100.00;100122.16;5362403;26;19937;-88
2024/04/12 02:42:51;;;;;;;;;;;;;;;2.34;100.00;100114.91;5381072;26;19957;-89
2024/04/12 02:45:16;;;;;;;;;;;;;;;2.13;100.00;100121.94;5408378;26;20473;-89
2024/04/12 02:47:42;;;;;;;;;;;;;;;2.23;100.00;100114.94;5313895;26;19963;-89
2024/04/12 02:50:10;;;;;;;;;;;;;;;2.15;100.00;100113.38;5396787;26;19930;-90
2024/04/12 02:52:40;;;;;;;;;;;;;;;2.18;100.00;100120.63;5381631;26;19968;-90
2024/04/12 02:55:12;;;;;;;;;;;;;;;1.97;100.00;100123.28;5323963;26;19930;-89
2024/04/12 02:57:41;;;;;;;;;;;;;;;1.80;100.00;100118.28;5340640;26;19958;-88
2024/04/12 03:00:21;;;;;;;;;;;;;;;2.04;100.00;100117.75;5326571;26;20035;-88
2024/04/12 03:02:51;;;;;;;;;;;;;;;2.19;100.00;100118.09;5351627;26;20000;-89
2024/04/12 03:05:17;;;;;;;;;;;;;;;2.13;100.00;100120.22;5348938;26;19930;-90
2024/04/12 03:07:45;;;;;;;;;;;;;;;1.96;100.00;100125.78;5388404;26;19976;-92
2024/04/12 03:10:11;;;;;;;;;;;;;;;1.73;100.00;100132.63;5378273;26;19948;-88
2024/04/12 03:12:36;;;;;;;;;;;;;;;1.67;100.00;100124.19;5368412;26;20372;-88
2024/04/12 03:15:04;;;;;;;;;;;;;;;1.66;100.00;100122.34;5367235;26;20103;-89
2024/04/12 03:17:29;;;;;;;;;;;;;;;1.51;100.00;100132.47;5333952;26;19941;-89
2024/04/12 03:19:55;;;;;;;;;;;;;;;1.87;100.00;100128.56;5355715;26;19936;-90
2024/04/12 03:22:21;;;;;;;;;;;;;;;1.93;100.00;100126.44;5300504;26;19946;-90
2024/04/12 03:24:46;;;;;;;;;;;;;;;1.88;100.00;100125.13;5365424;26;20007;-89
2024/04/12 03:27:13;;;;;;;;;;;;;;;1.86;100.00;100128.41;5371538;26;19941;-89
2024/04/12 03:29:38;;;;;;;;;;;;;;;1.86;100.00;100131.03;5360172;26;19938;-90
2024/04/12 03:32:07;;;;;;;;;;;;;;;1.71;100.00;100128.00;5371971;26;20004;-90
2024/04/12 03:34:35;;;;;;;;;;;;;;;1.65;100.00;100125.78;5373218;26;19934;-87
2024/04/12 03:37:23;;;;;;;;;;;;;;;1.66;100.00;100129.34;5387335;26;19999;-87
2024/04/12 03:39:47;;;;;;;;;;;;;;;1.70;100.00;100128.81;5384260;26;19929;-87
2024/04/12 03:42:12;;;;;;;;;;;;;;;1.57;100.00;100132.09;5341850;26;19941;-88
2024/04/12 03:44:38;;;;;;;;;;;;;;;1.72;100.00;100129.84;5401329;26;20371;-88
2024/04/12 03:47:10;;;;;;;;;;;;;;;1.65;100.00;100131.06;5398469;26;20002;-89
2024/04/12 03:49:39;;;;;;;;;;;;;;;1.51;100.00;100131.56;5320906;26;19931;-89
2024/04/12 03:52:05;;;;;;;;;;;;;;;1.26;100.00;100144.28;5376849;26;19929;-89
2024/04/12 03:54:30;;;;;;;;;;;;;;;1.30;100.00;100141.13;5397086;26;19937;-88
2024/04/12 03:57:06;;;;;;;;;;;;;;;1.09;100.00;100134.88;5345121;26;19930;-90
2024/04/12 03:59:34;;;;;;;;;;;;;;;1.26;100.00;100137.31;5346957;26;19937;-88
2024/04/12 04:02:06;;;;;;;;;;;;;;;1.28;100.00;100140.06;5379231;26;19942;-91
2024/04/12 04:04:37;;;;;;;;;;;;;;;1.30;100.00;100142.84;5351918;26;19929;-89
2024/04/12 04:07:03;;;;;;;;;;;;;;;1.38;100.00;100147.06;5387663;26;19933;-89
2024/04/12 04:09:29;;;;;;;;;;;;;;;1.44;100.00;100147.59;5318557;26;20375;-89
2024/04/12 04:11:55;;;;;;;;;;;;;;;1.45;100.00;100144.19;5403793;26;19937;-89
2024/04/12 04:14:27;;;;;;;;;;;;;;;1.38;100.00;100141.78;5350025;26;19930;-90
2024/04/12 04:16:56;;;;;;;;;;;;;;;1.58;100.00;100146.16;5375188;26;19937;-87
2024/04/12 04:19:31;;;;;;;;;;;;;;;1.45;100.00;100138.94;5378827;26;20028;-88
2024/04/12 04:22:04;;;;;;;;;;;;;;;1.41;100.00;100147.34;5350855;26;19999;-90
2024/04/12 04:24:30;;;;;;;;;;;;;;;1.40;100.00;100143.78;5380116;26;20001;-89
2024/04/12 04:27:08;;;;;;;;;;;;;;;1.18;100.00;100154.09;5322387;26;19930;-90
2024/04/12 04:29:43;;;;;;;;;;;;;;;1.15;100.00;100145.03;5350573;26;19930;-88
2024/04/12 04:32:09;;;;;;;;;;;;;;;1.16;100.00;100142.56;5320213;26;20004;-89
2024/04/12 04:34:37;;;;;;;;;;;;;;;1.39;100.00;100144.56;5353099;26;19941;-88
2024/04/12 04:37:05;;;;;;;;;;;;;;;1.26;100.00;100137.31;5380173;26;19937;-89
2024/04/12 04:39:32;;;;;;;;;;;;;;;1.36;100.00;100140.75;5369223;26;19998;-88
2024/04/12 04:41:58;;;;;;;;;;;;;;;1.41;100.00;100136.81;5318704;26;20295;-91
2024/04/12 04:44:24;;;;;;;;;;;;;;;1.37;100.00;100137.31;5349782;26;19936;-92
2024/04/12 04:46:50;;;;;;;;;;;;;;;1.29;100.00;100134.00;5383900;26;19929;-89
2024/04/12 04:49:17;;;;;;;;;;;;;;;1.30;100.00;100134.97;5375529;26;19937;-89
2024/04/12 04:51:43;;;;;;;;;;;;;;;1.40;100.00;100133.25;5373112;26;20165;-89
2024/04/12 04:54:11;;;;;;;;;;;;;;;1.36;100.00;100132.88;5370447;26;20440;-89
2024/04/12 04:56:40;;;;;;;;;;;;;;;1.42;100.00;100134.31;5350952;26;19944;-88
2024/04/12 04:59:07;;;;;;;;;;;;;;;1.50;100.00;100124.47;5371238;26;19930;-88
2024/04/12 05:01:34;;;;;;;;;;;;;;;1.77;100.00;100121.59;5374740;26;19930;-90
2024/04/12 05:03:59;;;;;;;;;;;;;;;1.83;100.00;100130.81;5398056;26;20008;-92
2024/04/12 05:06:25;;;;;;;;;;;;;;;1.81;100.00;100133.28;5376824;26;19929;-91
2024/04/12 05:08:55;;;;;;;;;;;;;;;1.98;100.00;100138.28;5372665;26;19979;-90
2024/04/12 05:11:21;;;;;;;;;;;;;;;2.24;100.00;100135.22;5385432;26;19941;-93
2024/04/12 05:13:50;;;;;;;;;;;;;;;2.24;100.00;100135.22;5353300;26;19934;-91
2024/04/12 05:16:19;;;;;;;;;;;;;;;2.22;100.00;100125.34;5341899;26;20007;-90
2024/04/12 05:18:44;;;;;;;;;;;;;;;2.38;100.00;100130.19;5336148;26;19941;-90
2024/04/12 05:21:13;;;;;;;;;;;;;;;2.43;100.00;100135.03;5348063;26;20329;-91
2024/04/12 05:23:39;;;;;;;;;;;;;;;2.51;100.00;100135.69;5383507;26;19970;-90
2024/04/12 05:26:06;;;;;;;;;;;;;;;2.64;98.90;100135.00;5346177;26;19937;-89
2024/04/12 05:28:33;;;;;;;;;;;;;;;2.69;98.93;100125.75;5387971;26;19936;-90
2024/04/12 05:30:59;;;;;;;;;;;;;;;2.80;97.81;100120.56;5351813;26;19937;-91
2024/04/12 05:33:27;;;;;;;;;;;;;;;2.94;96.98;100126.03;5352708;26;19930;-90
2024/04/12 05:35:52;;;;;;;;;;;;;;;3.04;96.69;100128.63;5353159;26;20518;-90
2024/04/12 05:38:21;;;;;;;;;;;;;;;3.11;96.38;100130.94;5414233;26;19937;-89
2024/04/12 05:40:52;;;;;;;;;;;;;;;3.19;97.20;100123.66;5329965;26;19929;-88
2024/04/12 05:43:17;;;;;;;;;;;;;;;3.39;96.67;100126.16;5324844;26;19962;-88
2024/04/12 05:46:00;;;;;;;;;;;;;;;3.56;96.57;100132.78;5401080;26;20460;-89
2024/04/12 05:48:26;;;;;;;;;;;;;;;3.75;96.08;100130.81;5322892;26;19929;-88
2024/04/12 05:50:56;;;;;;;;;;;;;;;4.07;96.85;100125.38;5324392;26;19958;-89
2024/04/12 05:53:30;;;;;;;;;;;;;;;4.33;94.06;100127.34;5381565;26;20006;-89
2024/04/12 05:58:42;;;;;;;;;;;;;;;4.78;88.73;100121.03;5380870;26;19941;-88
2024/04/12 06:01:09;;;;;;;;;;;;;;;5.03;90.25;100118.50;5375168;26;19942;-87
2024/04/12 06:03:48;;;;;;;;;;;;;;;5.30;90.23;100116.91;5342526;26;19937;-89
2024/04/12 06:06:14;;;;;;;;;;;;;;;5.36;89.85;100117.34;5375305;26;19937;-89
2024/04/12 06:08:41;;;;;;;;;;;;;;;5.37;90.50;100113.00;5369261;26;19929;-89
2024/04/12 06:11:09;;;;;;;;;;;;;;;5.38;91.86;100125.41;5376667;26;19929;-90
2024/04/12 06:13:40;;;;;;;;;;;;;;;5.40;91.34;100124.69;5365535;26;19930;-89
2024/04/12 06:16:07;;;;;;;;;;;;;;;5.65;90.22;100131.72;5376705;26;19979;-89
2024/04/12 06:18:33;;;;;;;;;;;;;;;5.88;88.20;100138.66;5344559;26;19945;-89
2024/04/12 06:21:01;;;;;;;;;;;;;;;6.19;87.85;100149.69;5351314;26;19969;-89
2024/04/12 06:23:26;;;;;;;;;;;;;;;6.54;85.87;100143.22;5367454;26;20561;-89
2024/04/12 06:25:58;;;;;;;;;;;;;;;6.81;86.08;100144.16;5376973;26;19930;-88
2024/04/12 06:28:24;;;;;;;;;;;;;;;7.19;85.04;100139.66;5349254;26;20328;-89
2024/04/12 06:30:54;;;;;;;;;;;;;;;7.52;82.62;100140.00;5368321;26;19942;-89
2024/04/12 06:33:22;;;;;;;;;;;;;;;7.61;82.41;100144.94;5393820;26;20511;-88
2024/04/12 06:35:52;;;;;;;;;;;;;;;7.99;82.08;100142.03;5392535;26;19956;-90
2024/04/12 06:38:22;;;;;;;;;;;;;;;8.33;83.13;100149.41;5390598;26;19959;-91
2024/04/12 06:40:55;;;;;;;;;;;;;;;8.46;79.23;100138.72;5377423;26;19929;-89
2024/04/12 06:43:21;;;;;;;;;;;;;;;8.78;80.09;100143.31;5318899;26;19937;-91
2024/04/12 06:46:02;;;;;;;;;;;;;;;9.47;77.79;100141.94;5356440;26;20431;-90
2024/04/12 06:48:28;;;;;;;;;;;;;;;9.91;74.75;100148.78;5344144;26;19929;-89
2024/04/12 06:50:56;;;;;;;;;;;;;;;10.19;72.51;100146.78;5349610;26;19936;-90
2024/04/12 06:53:22;;;;;;;;;;;;;;;10.50;71.48;100144.03;5341785;26;19965;-89
2024/04/12 06:55:57;;;;;;;;;;;;;;;10.97;70.25;100137.53;5366356;26;19935;-88
2024/04/12 06:58:24;;;;;;;;;;;;;;;11.45;67.12;100148.81;5323621;26;20317;-89
2024/04/12 07:00:57;;;;;;;;;;;;;;;11.76;65.32;100139.56;5347024;26;19938;-89
2024/04/12 07:03:23;;;;;;;;;;;;;;;12.06;64.35;100132.06;5391278;26;19929;-89
2024/04/12 07:05:49;;;;;;;;;;;;;;;12.40;63.41;100122.88;5361185;26;19930;-89
2024/04/12 07:08:16;;;;;;;;;;;;;;;12.18;63.88;100118.34;5345097;26;19961;-88
2024/04/12 07:10:50;;;;;;;;;;;;;;;12.33;64.07;100129.72;5325649;26;19930;-91
2024/04/12 07:13:21;;;;;;;;;;;;;;;12.55;63.31;100128.88;5391766;26;20363;-90
2024/04/12 07:15:49;;;;;;;;;;;;;;;13.06;62.14;100121.25;5380358;26;19929;-90
2024/04/12 07:18:15;;;;;;;;;;;;;;;13.61;60.04;100112.81;5347362;26;19942;-90
2024/04/12 07:20:44;;;;;;;;;;;;;;;13.61;59.40;100123.53;5346338;26;19936;-88
2024/04/12 07:23:10;;;;;;;;;;;;;;;13.92;57.92;100125.63;5386373;26;19938;-89
2024/04/12 07:25:39;;;;;;;;;;;;;;;14.62;56.64;100119.28;5336313;26;19946;-89
2024/04/12 07:28:06;;;;;;;;;;;;;;;14.86;55.07;100112.06;5405059;26;20027;-89
2024/04/12 07:30:32;;;;;;;;;;;;;;;15.48;53.04;100109.63;5380062;26;19929;-89
2024/04/12 07:32:58;;;;;;;;;;;;;;;15.64;52.03;100111.94;5408430;26;19938;-89
2024/04/12 07:35:26;;;;;;;;;;;;;;;15.70;51.23;100107.63;5363665;26;19930;-91
2024/04/12 07:37:59;;;;;;;;;;;;;;;16.25;49.68;100107.47;5323046;26;19929;-88
2024/04/12 07:40:25;;;;;;;;;;;;;;;16.54;48.54;100113.69;5329359;26;19936;-89
2024/04/12 07:42:52;;;;;;;;;;;;;;;16.33;49.26;100119.38;5344881;26;20028;-89
2024/04/12 07:45:17;;;;;;;;;;;;;;;16.57;48.22;100113.75;5379139;26;20260;-90
2024/04/12 07:47:52;;;;;;;;;;;;;;;17.21;47.11;100110.97;5399522;26;19929;-90
2024/04/12 07:50:28;;;;;;;;;;;;;;;16.97;47.04;100112.16;5315849;26;19938;-92
2024/04/12 07:53:21;;;;;;;;;;;;;;;17.58;46.33;100112.72;5357357;26;19930;-91
2024/04/12 07:56:14;;;;;;;;;;;;;;;17.60;46.09;100105.59;5372226;26;19937;-90
2024/04/12 07:58:40;;;;;;;;;;;;;;;17.67;45.82;100103.06;5354824;26;19929;-90
2024/04/12 08:01:09;;;;;;;;;;;;;;;18.26;44.26;100101.66;5382471;26;19930;-91
2024/04/12 08:03:39;;;;;;;;;;;;;;;18.10;44.95;100104.03;5348380;26;19933;-90
2024/04/12 08:06:05;;;;;;;;;;;;;;;18.11;45.23;100096.81;5377469;26;19937;-90
2024/04/12 08:08:31;;;;;;;;;;;;;;;17.77;45.67;100085.31;5331323;26;19930;-90
2024/04/12 08:10:57;;;;;;;;;;;;;;;18.30;43.49;100069.34;5388258;26;19998;-91
2024/04/12 08:13:37;;;;;;;;;;;;;;;18.99;42.70;100067.00;5401882;26;19941;-90
2024/04/12 08:16:27;;;;;;;;;;;;;;;18.84;43.50;100065.84;5352610;26;19937;-90
2024/04/12 08:18:57;;;;;;;;;;;;;;;18.07;43.18;100079.66;5363031;26;19930;-91
2024/04/12 08:21:27;;;;;;;;;;;;;;;19.07;39.92;100074.38;5354999;26;19975;-90
2024/04/12 08:23:56;;;;;;;;;;;;;;;18.98;39.96;100066.09;5366815;26;19938;-90
2024/04/12 08:26:27;;;;;;;;;;;;;;;19.61;40.25;100059.88;5372159;26;19930;-92
2024/04/12 08:28:53;;;;;;;;;;;;;;;19.35;39.74;100061.25;5316580;26;21124;-90
2024/04/12 08:31:18;;;;;;;;;;;;;;;19.96;39.31;100062.13;5348074;26;20378;-90
2024/04/12 08:33:45;;;;;;;;;;;;;;;19.41;38.54;100056.84;5317668;26;19930;-88
2024/04/12 08:36:14;;;;;;;;;;;;;;;19.78;38.62;100057.38;5375134;26;19936;-90
2024/04/12 08:38:54;;;;;;;;;;;;;;;20.10;37.60;100060.50;5358582;26;19930;-90
2024/04/12 08:41:26;;;;;;;;;;;;;;;20.27;36.76;100063.44;5386094;26;19938;-90
2024/04/12 08:43:54;;;;;;;;;;;;;;;20.73;35.99;100064.84;5347104;26;19930;-90
2024/04/12 08:46:25;;;;;;;;;;;;;;;20.23;37.79;100058.88;5374540;26;19954;-92
2024/04/12 08:48:51;;;;;;;;;;;;;;;20.12;37.81;100061.47;5328338;26;19936;-92
2024/04/12 08:51:21;;;;;;;;;;;;;;;21.06;37.38;100071.47;5324694;26;19937;-92
2024/04/12 08:53:56;;;;;;;;;;;;;;;21.33;36.14;100068.09;5377088;26;20024;-90
2024/04/12 08:56:28;;;;;;;;;;;;;;;20.75;36.58;100067.59;5316896;26;19935;-90
2024/04/12 08:58:59;;;;;;;;;;;;;;;21.64;35.93;100062.88;5372025;26;19936;-88
2024/04/12 09:01:25;;;;;;;;;;;;;;;21.48;35.38;100062.78;5392621;26;19999;-91
2024/04/12 09:03:53;;;;;;;;;;;;;;;20.04;37.92;100076.69;5374823;26;19938;-95
2024/04/12 09:06:23;;;;;;;;;;;;;;;21.32;36.34;100073.50;5336766;26;20263;-90
2024/04/12 09:08:53;;;;;;;;;;;;;;;21.88;35.32;100059.38;5319985;26;19996;-93
2024/04/12 09:11:19;;;;;;;;;;;;;;;22.24;34.85;100058.66;5367444;26;19930;-90
2024/04/12 09:13:47;;;;;;;;;;;;;;;20.07;38.51;100065.88;5356333;26;19929;-91
2024/04/12 09:16:19;;;;;;;;;;;;;;;21.17;37.13;100064.31;5351605;26;19941;-91
2024/04/12 09:18:46;;;;;;;;;;;;;;;21.38;36.67;100063.63;5320857;26;19937;-90
2024/04/12 09:21:24;;;;;;;;;;;;;;;20.97;36.69;100061.44;5385105;26;19930;-90
2024/04/12 09:23:50;;;;;;;;;;;;;;;21.82;36.84;100057.53;5335723;26;19942;-94
2024/04/12 09:26:39;;;;;;;;;;;;;;;22.28;35.72;100069.56;5388748;26;19930;-89
2024/04/12 09:29:09;;;;;;;;;;;;;;;22.90;34.63;100065.19;5394273;26;19965;-91
2024/04/12 09:34:29;;;;;;;;;;;;;;;23.14;33.70;100064.28;5381649;26;19936;-90
2024/04/12 09:37:28;;;;;;;;;;;;;;;23.63;33.36;100072.38;5379943;26;19944;-90
2024/04/12 09:45:21;;;;;;;;;;;;;;;22.26;35.22;100070.44;5371849;26;19933;-91
2024/04/12 10:37:45;;;;;;;;;;;;;;;27.20;26.38;100014.34;5371126;26;19937;-91
2024/04/12 10:40:12;;;;;;;;;;;;;;;27.54;25.52;100012.78;5355725;26;19934;-92
2024/04/12 10:42:38;;;;;;;;;;;;;;;28.42;24.67;100006.41;5367636;26;19938;-90
2024/04/12 10:45:07;;;;;;;;;;;;;;;27.64;25.53;100010.75;5357479;26;19929;-90
2024/04/12 10:47:39;;;;;;;;;;;;;;;26.66;27.79;100004.25;5335845;26;19957;-89
2024/04/12 10:50:05;;;;;;;;;;;;;;;26.29;27.65;100004.78;5365902;26;20093;-90
2024/04/12 10:52:30;;;;;;;;;;;;;;;27.14;26.21;99987.97;5382283;26;19969;-88
2024/04/12 10:54:59;;;;;;;;;;;;;;;27.13;26.18;99983.41;5379290;26;19936;-91
2024/04/12 10:57:27;;;;;;;;;;;;;;;27.27;26.31;99986.81;5348976;26;19937;-89
2024/04/12 10:59:54;;;;;;;;;;;;;;;27.44;25.29;99985.56;5358610;26;20069;-89
2024/04/12 11:02:22;;;;;;;;;;;;;;;27.03;26.19;99982.66;5349214;26;20278;-89
2024/04/12 11:07:32;;;;;;;;;;;;;;;26.13;27.26;99985.88;5396647;26;19975;-88
2024/04/12 11:09:57;;;;;;;;;;;;;;;25.93;28.00;99988.88;5337457;26;20398;-91
2024/04/12 11:12:28;;;;;;;;;;;;;;;25.78;27.24;99987.25;5366255;26;19938;-90
2024/04/12 11:15:12;;;;;;;;;;;;;;;25.61;27.12;99989.22;5362250;26;19929;-89
2024/04/12 11:31:20;;;;;;;;;;;;;;;26.21;26.47;99970.25;5366127;26;19998;-88
2024/04/12 11:33:52;;;;;;;;;;;;;;;27.87;24.13;99966.44;5344317;26;19930;-88
2024/04/12 11:36:20;;;;;;;;;;;;;;;28.71;22.71;99961.78;5360369;26;20717;-87
2024/04/12 11:38:47;;;;;;;;;;;;;;;29.78;21.50;99955.25;5312172;26;19930;-87
2024/04/12 11:41:16;;;;;;;;;;;;;;;29.60;22.70;99953.94;5347004;26;20275;-89
2024/04/12 11:43:45;;;;;;;;;;;;;;;29.34;22.40;99943.66;5337540;26;19936;-88
2024/04/12 11:46:14;;;;;;;;;;;;;;;29.09;22.94;99943.44;5319981;26;19941;-89
2024/04/12 11:48:42;;;;;;;;;;;;;;;29.95;22.32;99941.91;5330098;26;19976;-88
2024/04/12 11:51:08;;;;;;;;;;;;;;;30.78;21.24;99931.00;5366695;26;19930;-90
2024/04/12 11:53:34;;;;;;;;;;;;;;;31.45;20.53;99927.75;5332370;26;19945;-89
2024/04/12 11:56:00;;;;;;;;;;;;;;;30.72;20.62;99925.72;5372338;26;20084;-88
2024/04/12 11:58:28;;;;;;;;;;;;;;;31.40;20.52;99928.81;5363445;26;20012;-89
2024/04/12 12:00:54;;;;;;;;;;;;;;;30.95;19.77;99919.38;5365822;26;19937;-90
2024/04/12 12:03:20;;;;;;;;;;;;;;;30.53;21.08;99919.91;5387465;26;19930;-88
2024/04/12 12:05:46;;;;;;;;;;;;;;;30.19;21.72;99929.25;5344699;26;20472;-90
2024/04/12 12:08:15;;;;;;;;;;;;;;;30.26;21.16;99924.44;5369055;26;19937;-90
2024/04/12 12:10:40;;;;;;;;;;;;;;;29.47;22.11;99919.47;5386136;26;19930;-89
2024/04/12 12:13:06;;;;;;;;;;;;;;;29.99;21.74;99917.91;5369611;26;19940;-89
2024/04/12 12:15:31;;;;;;;;;;;;;;;29.24;22.02;99912.78;5356090;26;20013;-90
2024/04/12 12:17:57;;;;;;;;;;;;;;;30.96;20.76;99907.44;5363392;26;19937;-89
2024/04/12 12:20:24;;;;;;;;;;;;;;;31.35;20.37;99908.78;5337187;26;19976;-89
2024/04/12 12:22:49;;;;;;;;;;;;;;;31.68;20.32;99901.09;5397730;26;19937;-89
2024/04/12 12:25:16;;;;;;;;;;;;;;;31.73;19.77;99900.91;5369301;26;19946;-89
2024/04/12 12:27:41;;;;;;;;;;;;;;;31.56;19.04;99901.53;5389641;26;20364;-89
2024/04/12 12:30:14;;;;;;;;;;;;;;;32.64;18.24;99900.97;5341634;26;20407;-89
2024/04/12 12:32:41;;;;;;;;;;;;;;;31.01;19.99;99898.03;5397301;26;20414;-87
2024/04/12 12:35:06;;;;;;;;;;;;;;;30.23;21.31;99902.50;5341817;26;19998;-89
2024/04/12 12:37:32;;;;;;;;;;;;;;;31.70;19.89;99901.00;5386572;26;19937;-89
2024/04/12 12:40:01;;;;;;;;;;;;;;;31.33;20.02;99899.69;5356732;26;19930;-89
2024/04/12 12:42:26;;;;;;;;;;;;;;;30.57;20.86;99899.56;5362269;26;19998;-89
2024/04/12 12:44:52;;;;;;;;;;;;;;;32.15;18.88;99901.09;5363096;26;19957;-88
2024/04/12 12:47:20;;;;;;;;;;;;;;;31.17;19.03;99899.28;5338343;26;19929;-88
2024/04/12 12:49:47;;;;;;;;;;;;;;;32.02;17.21;99896.13;5358817;26;19930;-89
2024/04/12 12:52:12;;;;;;;;;;;;;;;31.46;18.50;99900.09;5366319;26;19930;-87
2024/04/12 12:54:38;;;;;;;;;;;;;;;31.60;19.14;99896.81;5358592;26;20247;-89
2024/04/12 12:57:06;;;;;;;;;;;;;;;31.40;20.21;99887.44;5364136;26;20275;-89
2024/04/12 12:59:32;;;;;;;;;;;;;;;32.58;19.49;99885.56;5361452;26;19937;-88
2024/04/12 13:01:57;;;;;;;;;;;;;;;32.05;19.54;99882.19;5384100;26;19998;-88
2024/04/12 13:04:24;;;;;;;;;;;;;;;32.30;18.63;99890.41;5324104;26;19945;-90
2024/04/12 13:06:49;;;;;;;;;;;;;;;32.84;18.48;99881.66;5361016;26;19937;-88
2024/04/12 13:09:17;;;;;;;;;;;;;;;29.51;21.31;99874.41;5333212;26;20043;-89
2024/04/12 13:11:42;;;;;;;;;;;;;;;31.41;19.30;99875.44;5330557;26;19934;-88
2024/04/12 13:14:10;;;;;;;;;;;;;;;32.28;19.12;99865.56;5334736;26;20853;-87
2024/04/12 13:16:41;;;;;;;;;;;;;;;33.63;17.93;99862.44;5329653;26;19930;-89
2024/04/12 13:19:07;;;;;;;;;;;;;;;33.58;18.65;99870.06;5299666;26;19940;-87
2024/04/12 13:21:33;;;;;;;;;;;;;;;31.86;18.63;99871.91;5354857;26;19946;-90
2024/04/12 13:23:59;;;;;;;;;;;;;;;30.61;19.57;99868.16;5339163;26;19929;-89
2024/04/12 13:26:26;;;;;;;;;;;;;;;30.75;19.28;99852.09;5354996;26;19930;-88
2024/04/12 13:28:52;;;;;;;;;;;;;;;30.25;20.63;99857.47;5334120;26;19933;-88
2024/04/12 13:31:23;;;;;;;;;;;;;;;29.30;21.95;99848.44;5352734;26;19969;-88
2024/04/12 13:33:49;;;;;;;;;;;;;;;30.66;20.42;99846.88;5329831;26;19930;-88
2024/04/12 13:36:17;;;;;;;;;;;;;;;31.23;19.90;99836.59;5354430;26;19941;-88
2024/04/12 13:38:42;;;;;;;;;;;;;;;30.21;20.75;99836.47;5355604;26;19934;-88
2024/04/12 13:41:10;;;;;;;;;;;;;;;30.99;19.90;99838.38;5362938;26;19996;-89
2024/04/12 13:43:39;;;;;;;;;;;;;;;31.78;19.97;99835.38;5361434;26;19938;-87
2024/04/12 13:51:33;;;;;;;;;;;;;;;32.76;18.92;99824.91;5364397;26;19937;-88
2024/04/12 13:53:58;;;;;;;;;;;;;;;32.59;18.83;99836.69;5327425;26;19930;-89
2024/04/12 13:56:27;;;;;;;;;;;;;;;33.18;18.35;99828.53;5382997;26;19937;-88
2024/04/12 13:58:55;;;;;;;;;;;;;;;33.41;18.14;99829.34;5327405;26;19933;-89
2024/04/12 14:01:24;;;;;;;;;;;;;;;33.05;18.40;99820.84;5325145;26;19944;-87
2024/04/12 14:03:50;;;;;;;;;;;;;;;31.63;19.09;99830.47;5326468;26;19941;-88
2024/04/12 14:06:18;;;;;;;;;;;;;;;32.07;18.72;99830.59;5359561;26;19937;-88
2024/04/12 14:08:44;;;;;;;;;;;;;;;32.64;18.50;99824.47;5324372;26;19944;-88
2024/04/12 14:11:10;;;;;;;;;;;;;;;32.80;19.10;99812.75;5353187;26;19938;-88
2024/04/12 14:13:35;;;;;;;;;;;;;;;31.31;19.94;99816.06;5376102;26;19940;-89